createdAt,value
2023-03-17T00:03:57.467Z,41.63
2023-03-17T00:07:57.549Z,41.41
2023-03-17T00:11:58.387Z,41.60
2023-03-17T00:15:57.855Z,41.34
2023-03-17T00:19:58.016Z,41.42
2023-03-17T00:23:58.104Z,41.47
2023-03-17T00:27:58.296Z,40.98
2023-03-17T00:31:58.445Z,41.14
2023-03-17T00:35:58.609Z,41.30
2023-03-17T00:39:58.725Z,41.58
2023-03-17T00:43:58.824Z,41.76
2023-03-17T00:47:59.028Z,41.85
2023-03-17T00:51:59.167Z,41.95
2023-03-17T00:55:59.337Z,42.05
2023-03-17T00:59:59.523Z,42.08
2023-03-17T01:03:59.686Z,41.89
2023-03-17T01:07:59.838Z,41.80
2023-03-17T01:12:00.035Z,41.84
2023-03-17T01:16:00.305Z,41.69
2023-03-17T01:20:00.338Z,41.16
2023-03-17T01:24:00.546Z,41.53
2023-03-17T01:28:00.645Z,41.25
2023-03-17T01:32:00.855Z,41.16
2023-03-17T01:36:00.991Z,41.39
2023-03-17T01:40:01.122Z,41.28
2023-03-17T01:44:01.292Z,41.23
2023-03-17T01:48:01.441Z,41.23
2023-03-17T01:52:01.583Z,41.09
2023-03-17T01:56:01.735Z,40.60
2023-03-17T02:00:01.883Z,40.83
2023-03-17T02:04:02.064Z,40.95
2023-03-17T02:08:02.208Z,40.91
2023-03-17T02:12:02.342Z,40.95
2023-03-17T02:16:02.524Z,40.74
2023-03-17T02:20:02.646Z,40.73
2023-03-17T02:24:02.838Z,40.68
2023-03-17T02:28:02.977Z,40.51
2023-03-17T02:32:03.169Z,40.16
2023-03-17T02:36:03.375Z,40.36
2023-03-17T02:40:03.548Z,40.35
2023-03-17T02:44:03.615Z,40.23
2023-03-17T02:48:03.796Z,40.28
2023-03-17T02:52:03.964Z,40.10
2023-03-17T02:56:04.150Z,40.04
2023-03-17T03:00:04.258Z,39.98
2023-03-17T03:04:04.472Z,39.81
2023-03-17T03:08:04.610Z,39.79
2023-03-17T03:12:04.757Z,39.72
2023-03-17T03:16:05.031Z,39.40
2023-03-17T03:20:05.138Z,39.54
2023-03-17T03:24:05.320Z,39.35
2023-03-17T03:28:05.559Z,39.14
2023-03-17T03:32:05.715Z,39.24
2023-03-17T03:36:05.957Z,39.13
2023-03-17T03:40:06.116Z,38.81
2023-03-17T03:44:06.306Z,38.96
2023-03-17T03:48:06.500Z,38.77
2023-03-17T03:52:06.700Z,38.53
2023-03-17T03:56:06.993Z,38.72
2023-03-17T04:00:07.131Z,38.70
2023-03-17T04:04:07.352Z,38.55
2023-03-17T04:08:07.515Z,38.49
2023-03-17T04:12:07.754Z,38.54
2023-03-17T04:16:08.023Z,38.56
2023-03-17T04:20:08.144Z,38.47
2023-03-17T04:24:08.328Z,38.15
2023-03-17T04:28:08.507Z,38.18
2023-03-17T04:32:08.735Z,38.20
2023-03-17T04:36:08.983Z,38.16
2023-03-17T04:40:09.156Z,37.93
2023-03-17T04:44:09.369Z,38.06
2023-03-17T04:48:09.586Z,38.06
2023-03-17T04:52:09.785Z,37.92
2023-03-17T04:56:09.764Z,37.78
2023-03-17T05:00:09.756Z,37.89
2023-03-17T05:04:11.145Z,37.72
2023-03-17T05:08:09.655Z,37.66
2023-03-17T05:12:09.670Z,37.64
2023-03-17T05:16:09.720Z,37.49
2023-03-17T05:20:09.549Z,37.33
2023-03-17T05:24:09.523Z,37.45
2023-03-17T05:28:09.477Z,37.49
2023-03-17T05:32:09.426Z,37.52
2023-03-17T05:36:09.453Z,37.42
2023-03-17T05:40:09.355Z,37.40
2023-03-17T05:44:09.286Z,37.27
2023-03-17T05:48:09.462Z,37.09
2023-03-17T05:52:09.703Z,36.91
2023-03-17T05:56:09.870Z,38.65
2023-03-17T06:00:12.433Z,39.85
2023-03-17T06:04:10.079Z,41.20
2023-03-17T06:08:10.031Z,42.68
2023-03-17T06:12:10.034Z,43.29
2023-03-17T06:16:09.989Z,44.22
2023-03-17T06:20:09.954Z,45.41
2023-03-17T06:24:09.929Z,46.15
2023-03-17T06:28:09.858Z,46.96
2023-03-17T06:32:20.269Z,47.85
2023-03-17T06:36:10.823Z,48.44
2023-03-17T06:40:10.018Z,48.69
2023-03-17T06:44:10.012Z,49.32
2023-03-17T06:48:10.033Z,49.68
2023-03-17T06:52:10.017Z,50.14
2023-03-17T06:56:23.536Z,50.57
2023-03-17T07:00:11.536Z,50.91
2023-03-17T07:04:10.099Z,51.42
2023-03-17T07:08:10.080Z,51.75
2023-03-17T07:12:09.949Z,51.97
2023-03-17T07:16:10.127Z,52.38
2023-03-17T07:20:10.316Z,52.93
2023-03-17T07:24:10.309Z,53.03
2023-03-17T07:28:10.563Z,53.34
2023-03-17T07:32:10.505Z,53.59
2023-03-17T07:36:10.691Z,54.02
2023-03-17T07:40:11.568Z,53.84
2023-03-17T07:44:11.047Z,54.04
2023-03-17T07:48:10.944Z,54.72
2023-03-17T07:52:11.146Z,54.86
2023-03-17T07:56:11.114Z,54.83
2023-03-17T08:00:11.134Z,54.98
2023-03-17T08:04:11.194Z,55.13
2023-03-17T08:08:11.221Z,55.29
2023-03-17T08:12:11.275Z,55.18
2023-03-17T08:16:11.557Z,55.10
2023-03-17T08:20:11.372Z,55.13
2023-03-17T08:24:11.375Z,54.97
2023-03-17T08:28:11.417Z,55.14
2023-03-17T08:32:11.454Z,55.25
2023-03-17T08:36:11.438Z,55.22
2023-03-17T08:40:11.402Z,55.27
2023-03-17T08:44:11.554Z,55.37
2023-03-17T08:48:11.573Z,55.25
2023-03-17T08:52:11.574Z,55.23
2023-03-17T08:56:11.563Z,55.29
2023-03-17T09:00:11.274Z,55.34
2023-03-17T09:04:11.281Z,55.35
2023-03-17T09:08:11.650Z,55.39
2023-03-17T09:12:11.279Z,55.62
2023-03-17T09:16:11.409Z,55.55
2023-03-17T09:20:11.188Z,55.43
2023-03-17T09:24:11.189Z,55.65
2023-03-17T09:28:11.586Z,55.71
2023-03-17T09:32:11.154Z,55.79
2023-03-17T09:36:11.246Z,55.72
2023-03-17T09:40:11.581Z,55.92
2023-03-17T09:44:11.591Z,55.90
2023-03-17T09:48:11.583Z,55.92
2023-03-17T09:52:11.240Z,56.03
2023-03-17T09:56:11.603Z,56.12
2023-03-17T10:00:11.346Z,56.04
2023-03-17T10:04:11.566Z,56.28
2023-03-17T10:08:28.870Z,56.26
2023-03-17T10:12:12.464Z,56.19
2023-03-17T10:16:11.446Z,56.05
2023-03-17T10:20:11.385Z,56.03
2023-03-17T10:24:11.598Z,55.95
2023-03-17T10:28:11.554Z,55.82
2023-03-17T10:32:11.749Z,55.88
2023-03-17T10:36:12.146Z,56.01
2023-03-17T10:40:12.091Z,56.15
2023-03-17T10:44:11.816Z,56.12
2023-03-17T10:48:12.100Z,56.00
2023-03-17T10:52:12.107Z,55.92
2023-03-17T10:56:11.747Z,55.90
2023-03-17T11:00:11.714Z,55.78
2023-03-17T11:04:11.688Z,55.92
2023-03-17T11:08:12.112Z,55.99
2023-03-17T11:12:11.582Z,55.82
2023-03-17T11:16:12.162Z,55.67
2023-03-17T11:20:11.932Z,55.48
2023-03-17T11:24:12.089Z,55.51
2023-03-17T11:28:12.252Z,55.15
2023-03-17T11:32:12.432Z,55.13
2023-03-17T11:36:12.665Z,55.18
2023-03-17T11:40:13.110Z,55.18
2023-03-17T11:44:13.122Z,55.23
2023-03-17T11:48:13.131Z,55.19
2023-03-17T11:52:12.754Z,55.03
2023-03-17T11:56:12.736Z,54.72
2023-03-17T12:00:12.657Z,54.65
2023-03-17T12:04:13.184Z,54.72
2023-03-17T12:08:12.595Z,54.77
2023-03-17T12:12:13.820Z,54.60
2023-03-17T12:16:12.706Z,54.09
2023-03-17T12:20:12.514Z,53.25
2023-03-17T12:24:12.652Z,52.90
2023-03-17T12:28:12.450Z,52.93
2023-03-17T12:32:12.634Z,53.20
2023-03-17T12:36:12.619Z,53.27
2023-03-17T12:40:12.293Z,53.32
2023-03-17T12:44:12.278Z,53.44
2023-03-17T12:48:12.241Z,53.65
2023-03-17T12:52:12.204Z,53.79
2023-03-17T12:56:12.151Z,53.77
2023-03-17T13:00:12.274Z,54.00
2023-03-17T13:04:12.062Z,54.10
2023-03-17T13:08:12.191Z,54.17
2023-03-17T13:12:11.997Z,54.23
2023-03-17T13:16:11.996Z,54.39
2023-03-17T13:20:12.043Z,54.37
2023-03-17T13:24:11.914Z,54.71
2023-03-17T13:28:11.964Z,54.80
2023-03-17T13:32:11.916Z,55.18
2023-03-17T13:36:11.906Z,55.53
2023-03-17T13:40:11.868Z,55.85
2023-03-17T13:44:11.832Z,56.09
2023-03-17T13:48:11.768Z,56.21
2023-03-17T13:52:11.710Z,56.11
2023-03-17T13:56:11.708Z,56.09
2023-03-17T14:00:11.633Z,55.99
2023-03-17T14:04:11.702Z,55.74
2023-03-17T14:08:11.663Z,55.56
2023-03-17T14:12:11.869Z,55.69
2023-03-17T14:16:11.875Z,55.59
2023-03-17T14:20:11.810Z,55.84
2023-03-17T14:24:11.773Z,55.87
2023-03-17T14:28:11.788Z,55.81
2023-03-17T14:32:11.670Z,55.92
2023-03-17T14:36:14.019Z,56.02
2023-03-17T14:40:11.610Z,55.77
2023-03-17T14:44:11.551Z,55.82
2023-03-17T14:48:11.544Z,56.00
2023-03-17T14:52:11.525Z,56.16
2023-03-17T14:56:11.478Z,55.93
2023-03-17T15:00:11.444Z,55.99
2023-03-17T15:04:11.410Z,56.03
2023-03-17T15:08:11.363Z,56.13
2023-03-17T15:12:11.296Z,55.88
2023-03-17T15:16:11.397Z,56.02
2023-03-17T15:20:11.592Z,55.90
2023-03-17T15:24:11.716Z,55.82
2023-03-17T15:28:11.763Z,55.79
2023-03-17T15:32:11.869Z,55.45
2023-03-17T15:36:16.584Z,55.43
2023-03-17T15:40:12.975Z,55.45
2023-03-17T15:44:11.949Z,55.88
2023-03-17T15:48:12.098Z,56.31
2023-03-17T15:52:12.295Z,56.33
2023-03-17T15:56:12.530Z,56.27
2023-03-17T16:00:12.470Z,56.28
2023-03-17T16:04:12.438Z,56.18
2023-03-17T16:08:12.380Z,56.21
2023-03-17T16:12:12.365Z,56.32
2023-03-17T16:16:12.348Z,56.32
2023-03-17T16:20:12.276Z,56.26
2023-03-17T16:24:12.234Z,56.44
2023-03-17T16:28:12.257Z,56.53
2023-03-17T16:32:12.194Z,56.44
2023-03-17T16:36:12.204Z,56.21
2023-03-17T16:40:14.268Z,56.27
2023-03-17T16:44:12.336Z,56.57
2023-03-17T16:48:12.175Z,56.69
2023-03-17T16:52:12.127Z,56.64
2023-03-17T16:56:12.132Z,56.87
2023-03-17T17:00:12.034Z,57.05
2023-03-17T17:04:12.008Z,57.08
2023-03-17T17:08:11.970Z,57.11
2023-03-17T17:12:11.924Z,57.32
2023-03-17T17:16:11.995Z,57.30
2023-03-17T17:20:11.869Z,57.05
2023-03-17T17:24:11.887Z,57.04
2023-03-17T17:28:11.973Z,56.84
2023-03-17T17:32:12.142Z,56.81
2023-03-17T17:36:12.405Z,56.88
2023-03-17T17:40:12.481Z,57.16
2023-03-17T17:44:12.652Z,57.36
2023-03-17T17:48:12.879Z,57.51
2023-03-17T17:52:13.013Z,57.57
2023-03-17T17:56:13.229Z,57.79
2023-03-17T18:00:13.390Z,57.55
2023-03-17T18:04:13.642Z,57.43
2023-03-17T18:08:13.693Z,57.18
2023-03-17T18:12:13.793Z,57.03
2023-03-17T18:16:13.923Z,56.91
2023-03-17T18:20:13.977Z,56.80
2023-03-17T18:24:14.129Z,56.55
2023-03-17T18:28:14.311Z,56.47
2023-03-17T18:32:14.403Z,56.34
2023-03-17T18:36:14.397Z,56.19
2023-03-17T18:40:18.152Z,56.10
2023-03-17T18:44:14.315Z,55.92
2023-03-17T18:48:14.248Z,55.75
2023-03-17T18:52:14.199Z,55.53
2023-03-17T18:56:14.371Z,55.33
2023-03-17T19:00:14.314Z,55.18
2023-03-17T19:04:14.286Z,54.94
2023-03-17T19:08:14.233Z,54.73
2023-03-17T19:12:14.208Z,54.57
2023-03-17T19:16:14.213Z,54.40
2023-03-17T19:20:14.093Z,54.18
2023-03-17T19:24:14.083Z,54.02
2023-03-17T19:28:14.041Z,53.80
2023-03-17T19:32:14.009Z,53.61
2023-03-17T19:36:14.013Z,53.44
2023-03-17T19:40:13.965Z,53.23
2023-03-17T19:44:13.883Z,53.06
2023-03-17T19:48:13.860Z,52.93
2023-03-17T19:52:13.911Z,52.75
2023-03-17T19:56:14.048Z,52.61
2023-03-17T20:00:14.119Z,52.37
2023-03-17T20:04:14.135Z,52.21
2023-03-17T20:08:14.192Z,52.09
2023-03-17T20:12:14.213Z,51.85
2023-03-17T20:16:14.176Z,51.72
2023-03-17T20:20:14.161Z,51.56
2023-03-17T20:24:14.170Z,51.35
2023-03-17T20:28:14.220Z,51.25
2023-03-17T20:32:14.252Z,51.07
2023-03-17T20:36:14.373Z,50.94
2023-03-17T20:40:14.363Z,50.78
2023-03-17T20:44:14.360Z,50.74
2023-03-17T20:48:14.294Z,50.55
2023-03-17T20:52:14.344Z,50.42
2023-03-17T20:56:14.361Z,50.30
2023-03-17T21:00:14.315Z,50.18
2023-03-17T21:04:14.412Z,50.02
2023-03-17T21:08:14.420Z,49.88
2023-03-17T21:12:14.421Z,49.71
2023-03-17T21:16:14.433Z,49.62
2023-03-17T21:20:14.360Z,49.41
2023-03-17T21:24:14.341Z,49.33
2023-03-17T21:28:14.353Z,49.26
2023-03-17T21:32:14.280Z,48.97
2023-03-17T21:36:14.304Z,48.97
2023-03-17T21:40:14.263Z,48.79
2023-03-17T21:44:14.219Z,48.65
2023-03-17T21:48:14.198Z,48.47
2023-03-17T21:52:14.210Z,48.33
2023-03-17T21:56:14.180Z,48.28
2023-03-17T22:00:14.195Z,48.21
2023-03-17T22:04:14.234Z,48.09
2023-03-17T22:08:14.209Z,48.03
2023-03-17T22:12:14.183Z,48.14
2023-03-17T22:16:14.132Z,48.01
2023-03-17T22:20:14.128Z,47.82
2023-03-17T22:24:14.120Z,47.63
2023-03-17T22:28:14.081Z,47.44
2023-03-17T22:32:14.101Z,47.44
2023-03-17T22:36:14.089Z,47.43
2023-03-17T22:40:14.024Z,47.24
2023-03-17T22:44:14.070Z,47.16
2023-03-17T22:48:14.043Z,46.98
2023-03-17T22:52:13.997Z,46.97
2023-03-17T22:56:13.973Z,46.84
2023-03-17T23:00:14.013Z,46.87
2023-03-17T23:04:14.146Z,46.73
2023-03-17T23:08:14.150Z,46.59
2023-03-17T23:12:14.151Z,46.61
2023-03-17T23:16:14.150Z,46.55
2023-03-17T23:20:14.117Z,46.39
2023-03-17T23:24:14.120Z,46.35
2023-03-17T23:28:14.091Z,46.15
2023-03-17T23:32:14.090Z,46.06
2023-03-17T23:36:14.114Z,46.12
2023-03-17T23:40:14.021Z,46.04
2023-03-17T23:44:14.064Z,45.84
2023-03-17T23:48:14.049Z,45.74
2023-03-17T23:52:13.965Z,45.47
2023-03-17T23:56:13.980Z,45.42
